Time;durP1;ratioP1;P1;durP2;ratioP2;P2;SDS_P1;SDS_P2;PMS_P1;PMS_P2;Temp;Humidity;BMP_temperature;BMP_pressure;BME280_temperature;BME280_humidity;BME280_pressure;Samples;Min_cycle;Max_cycle;Signal;HPM_P1;HPM_P2
2022/04/16 00:00:34;;;;;;;5.70;4.70;;;14.10;53.20;;;10.10;66.04;96146.00;5013423;28;20104;-53
2022/04/16 00:03:00;;;;;;;5.85;4.70;;;14.00;53.20;;;10.09;65.47;96149.72;5013219;28;20021;-50
2022/04/16 00:05:26;;;;;;;6.25;4.80;;;14.00;53.20;;;10.08;65.66;96155.28;5012758;28;20053;-50
2022/04/16 00:08:07;;;;;;;6.88;5.07;;;13.90;53.20;;;9.95;65.60;96151.91;5043092;28;20030;-49
2022/04/16 00:10:35;;;;;;;5.05;4.15;;;13.80;53.20;;;9.85;65.77;96151.00;5034260;28;20087;-50
2022/04/16 00:13:05;;;;;;;5.85;4.53;;;13.70;53.10;;;9.75;66.07;96142.88;5065813;28;20040;-50
2022/04/16 00:15:38;;;;;;;7.53;4.63;;;13.60;53.20;;;9.65;66.85;96154.16;5055786;28;20187;-52
2022/04/16 00:18:04;;;;;;;5.55;4.55;;;13.50;53.40;;;9.52;66.73;96151.84;5013227;28;20026;-50
2022/04/16 00:20:34;;;;;;;7.60;4.72;;;13.40;53.40;;;9.40;67.00;96158.06;5013181;28;20076;-50
2022/04/16 00:23:00;;;;;;;6.43;4.80;;;13.30;53.50;;;9.27;67.95;96148.56;5012602;28;20057;-51
2022/04/16 00:25:30;;;;;;;5.82;4.47;;;13.30;53.50;;;9.15;68.78;96147.03;5013590;28;20026;-51
2022/04/16 00:28:08;;;;;;;6.53;4.53;;;13.20;53.70;;;9.06;69.60;96151.13;5012912;28;20431;-53
2022/04/16 00:30:39;;;;;;;6.72;4.80;;;13.00;53.90;;;8.97;69.33;96140.09;5026101;28;20025;-51
2022/04/16 00:33:10;;;;;;;5.65;4.60;;;13.00;54.00;;;8.89;69.47;96135.97;5048700;28;20025;-50
2022/04/16 00:35:37;;;;;;;5.72;4.20;;;12.90;54.30;;;8.93;69.42;96138.94;5033354;28;20025;-50
2022/04/16 00:38:04;;;;;;;4.60;3.95;;;12.80;54.50;;;8.85;70.16;96134.03;5032558;28;20053;-50
2022/04/16 00:40:29;;;;;;;9.48;4.30;;;12.80;54.80;;;8.75;69.87;96132.81;5033470;28;20509;-51
2022/04/16 00:42:59;;;;;;;6.13;3.60;;;12.70;55.00;;;8.77;69.50;96121.94;5049043;28;20036;-50
2022/04/16 00:45:29;;;;;;;3.25;2.75;;;12.70;55.30;;;8.73;69.66;96112.84;5048305;28;20022;-52
2022/04/16 00:48:08;;;;;;;3.92;2.90;;;12.70;55.40;;;8.73;69.42;96116.31;5048771;28;20026;-50
2022/04/16 00:50:33;;;;;;;3.38;2.78;;;12.60;55.40;;;8.81;68.62;96128.41;5048742;28;20032;-52
2022/04/16 00:53:01;;;;;;;4.40;2.65;;;12.60;55.30;;;8.86;68.50;96130.34;5048735;28;20026;-49
2022/04/16 00:55:30;;;;;;;3.47;2.42;;;12.60;55.30;;;8.82;68.42;96134.53;5048269;28;20025;-50
2022/04/16 00:57:55;;;;;;;3.63;2.50;;;12.60;55.30;;;8.80;68.33;96132.09;5048636;28;20492;-51
2022/04/16 01:00:21;;;;;;;3.30;2.47;;;12.60;55.20;;;8.78;69.02;96126.22;5031745;28;20105;-51
2022/04/16 01:02:49;;;;;;;4.70;2.78;;;12.60;55.20;;;8.74;68.40;96128.56;5033165;28;20456;-50
2022/04/16 01:05:21;;;;;;;4.97;3.00;;;12.60;55.10;;;8.70;68.67;96123.97;5047586;28;20057;-49
2022/04/16 01:08:12;;;;;;;3.85;2.38;;;12.60;55.20;;;8.67;68.95;96138.50;5031802;28;20029;-52
2022/04/16 01:10:38;;;;;;;3.15;2.30;;;12.60;55.30;;;8.59;68.60;96128.28;5028788;28;20048;-53
2022/04/16 01:13:06;;;;;;;3.95;2.55;;;12.50;55.10;;;8.63;69.01;96134.72;5065658;28;20025;-54
2022/04/16 01:15:32;;;;;;;3.03;2.55;;;12.50;55.20;;;8.63;69.08;96137.38;5065654;28;20028;-55
2022/04/16 01:18:03;;;;;;;3.28;2.25;;;12.50;55.30;;;8.65;68.77;96134.47;5033708;28;20021;-52
2022/04/16 01:20:34;;;;;;;4.43;2.38;;;12.40;55.20;;;8.65;69.04;96134.47;5062387;28;20100;-52
2022/04/16 01:23:03;;;;;;;3.30;2.80;;;12.50;55.30;;;8.62;69.37;96129.66;5013735;28;20022;-52
2022/04/16 01:25:32;;;;;;;4.05;2.45;;;12.50;55.40;;;8.70;69.02;96145.19;5031915;28;20453;-52
2022/04/16 01:27:58;;;;;;;2.97;2.20;;;12.40;55.20;;;8.68;69.15;96139.31;5033739;28;20049;-50
2022/04/16 01:30:28;;;;;;;5.38;2.72;;;12.40;55.20;;;8.64;69.63;96139.00;5048878;28;20040;-51
2022/04/16 01:32:54;;;;;;;4.45;2.83;;;12.40;55.30;;;8.64;69.24;96144.31;5065294;28;20428;-51
2022/04/16 01:35:20;;;;;;;5.93;2.95;;;12.40;55.40;;;8.58;69.97;96142.59;5047615;28;20116;-50
2022/04/16 01:37:46;;;;;;;3.60;2.50;;;12.40;55.50;;;8.55;70.24;96146.56;5048549;28;20026;-51
2022/04/16 01:40:20;;;;;;;6.00;3.10;;;12.40;55.70;;;8.52;70.34;96143.53;5033165;28;20373;-53
2022/04/16 01:42:45;;;;;;;5.43;3.22;;;12.40;55.90;;;8.51;70.33;96145.41;5033278;28;20032;-52
2022/04/16 01:45:23;;;;;;;5.13;3.08;;;12.30;56.00;;;8.57;69.84;96139.13;5033091;28;20104;-51
2022/04/16 01:47:59;;;;;;;3.70;2.95;;;12.40;56.40;;;8.63;69.95;96136.59;5064864;28;20034;-51
2022/04/16 01:50:28;;;;;;;3.92;3.38;;;12.40;56.50;;;8.71;69.86;96141.50;5032854;28;20025;-50
2022/04/16 01:53:00;;;;;;;6.00;3.45;;;12.40;56.70;;;8.74;69.96;96143.69;5064883;28;20476;-51
2022/04/16 01:55:35;;;;;;;4.40;3.53;;;12.40;56.90;;;8.74;70.03;96139.19;5032818;28;20061;-51
2022/04/16 01:58:06;;;;;;;4.20;3.50;;;12.50;57.00;;;8.72;69.99;96137.81;5032841;28;20029;-51
2022/04/16 02:00:35;;;;;;;4.28;3.50;;;12.50;56.90;;;8.69;70.58;96140.94;5032834;28;20491;-51
2022/04/16 02:03:01;;;;;;;3.78;3.22;;;12.50;56.90;;;8.66;70.34;96133.47;5032873;28;20061;-52
2022/04/16 02:05:33;;;;;;;3.85;3.22;;;12.50;56.90;;;8.62;70.89;96140.25;5032615;28;20088;-52
2022/04/16 02:08:06;;;;;;;4.38;2.85;;;12.50;57.00;;;8.58;70.77;96140.75;5064741;28;20108;-53
2022/04/16 02:10:35;;;;;;;;;;;12.50;57.10;;;8.58;70.77;96138.09;5064815;28;20027;-52
2022/04/16 02:13:01;;;;;;;5.90;3.40;;;12.50;56.90;;;8.56;71.02;96134.88;5047944;28;19952;-51
2022/04/16 02:15:27;;;;;;;4.22;2.92;;;12.50;56.90;;;8.63;71.03;96144.56;5032437;28;20025;-51
2022/04/16 02:17:59;;;;;;;4.80;3.30;;;12.50;57.10;;;8.56;71.32;96137.53;5032654;28;20373;-50
2022/04/16 02:20:25;;;;;;;4.60;3.30;;;12.50;57.30;;;8.59;71.14;96141.56;5032733;28;20403;-51
2022/04/16 02:22:52;;;;;;;5.45;3.22;;;12.50;57.40;;;8.62;71.07;96145.56;5064793;28;20029;-54
2022/04/16 02:25:27;;;;;;;6.05;3.20;;;12.50;57.60;;;8.65;71.24;96145.09;5047789;28;20485;-52
2022/04/16 02:27:53;;;;;;;3.97;3.00;;;12.50;57.70;;;8.62;71.39;96145.56;5064493;28;20029;-53
2022/04/16 02:30:22;;;;;;;5.45;3.67;;;12.50;57.70;;;8.63;71.65;96133.94;5031998;28;20026;-51
2022/04/16 02:32:53;;;;;;;4.20;3.00;;;12.50;58.40;;;8.61;71.62;96141.31;5012599;28;20042;-52
2022/04/16 02:35:25;;;;;;;5.18;2.97;;;12.60;58.00;;;8.57;71.84;96141.78;5012519;28;20424;-51
2022/04/16 02:37:53;;;;;;;4.05;3.10;;;12.50;58.10;;;8.58;71.91;96140.75;5028054;28;20034;-53
2022/04/16 02:40:19;;;;;;;7.43;3.47;;;12.50;58.10;;;8.59;71.93;96141.56;5012530;28;20022;-53
2022/04/16 02:42:54;;;;;;;4.88;3.42;;;12.50;58.20;;;8.55;72.09;96135.94;5040623;28;20026;-50
2022/04/16 02:48:13;;;;;;;5.43;3.03;;;12.50;58.20;;;8.48;72.56;96137.91;5039012;28;20043;-54
2022/04/16 02:50:39;;;;;;;4.55;3.47;;;12.50;58.30;;;8.42;72.78;96130.88;5038946;28;20462;-52
2022/04/16 02:53:11;;;;;;;5.25;3.42;;;12.50;58.40;;;8.42;72.92;96138.06;5053867;28;20117;-54
2022/04/16 02:55:37;;;;;;;5.18;3.35;;;12.50;58.40;;;8.39;73.09;96133.22;5070842;28;20062;-55
2022/04/16 02:58:03;;;;;;;6.38;3.47;;;12.40;58.40;;;8.33;73.22;96132.28;5038657;28;20523;-51
2022/04/16 03:00:29;;;;;;;4.82;3.20;;;12.40;58.40;;;8.29;73.33;96133.81;5038525;28;20045;-51
2022/04/16 03:03:09;;;;;;;4.65;3.08;;;12.40;58.50;;;8.26;73.63;96139.59;5038754;28;20032;-52
2022/04/16 03:05:35;;;;;;;8.82;3.47;;;12.40;58.60;;;8.24;73.91;96129.22;5038500;28;20140;-54
2022/04/16 03:08:10;;;;;;;6.18;3.67;;;12.30;58.60;;;8.25;74.18;96140.63;5070693;28;20096;-52
2022/04/16 03:10:35;;;;;;;4.93;3.60;;;12.30;58.70;;;8.16;74.10;96129.56;5038707;28;20017;-52
2022/04/16 03:13:01;;;;;;;7.10;3.67;;;12.20;58.70;;;8.14;74.15;96128.19;5038541;28;20028;-51
2022/04/16 03:18:16;;;;;;;5.70;3.28;;;12.20;59.00;;;8.10;74.68;96133.97;5066185;28;20095;-53
2022/04/16 03:20:49;;;;;;;4.55;3.53;;;12.10;59.00;;;8.06;74.91;96140.78;5038561;28;20029;-50
2022/04/16 03:23:15;;;;;;;6.80;4.10;;;12.10;59.10;;;8.03;74.86;96132.50;5038546;28;20025;-50
2022/04/16 03:25:43;;;;;;;8.32;3.67;;;12.00;59.00;;;7.89;75.01;96135.41;5038294;28;20052;-53
2022/04/16 03:28:10;;;;;;;4.53;3.47;;;12.00;59.20;;;7.92;75.09;96136.78;5070076;28;20484;-53
2022/04/16 03:30:39;;;;;;;4.88;3.65;;;12.00;59.20;;;7.82;75.53;96137.38;5070528;28;20029;-51
2022/04/16 03:33:05;;;;;;;5.63;3.88;;;11.90;59.30;;;7.85;75.43;96146.72;5038453;28;20374;-51
2022/04/16 03:35:35;;;;;;;5.63;4.28;;;11.90;59.20;;;7.78;75.77;96146.03;5037361;28;20042;-51
2022/04/16 03:38:01;;;;;;;6.80;3.90;;;11.90;59.50;;;7.74;76.25;96139.56;5036912;28;20037;-55
2022/04/16 03:40:36;;;;;;;5.40;3.97;;;11.80;59.60;;;7.68;76.48;96140.50;5053688;28;20033;-52
2022/04/16 03:43:02;;;;;;;7.90;4.25;;;11.80;59.80;;;7.51;76.38;96127.94;5037112;28;20439;-53
2022/04/16 03:45:37;;;;;;;7.82;4.28;;;11.70;59.80;;;7.60;76.61;96136.38;5053800;28;20029;-55
2022/04/16 03:48:15;;;;;;;8.93;5.10;;;11.70;59.90;;;7.55;76.78;96145.03;5038437;28;20040;-55
2022/04/16 03:50:41;;;;;;;7.57;4.60;;;11.60;60.10;;;7.54;76.97;96140.75;5052790;28;20040;-55
2022/04/16 03:53:06;;;;;;;5.95;4.35;;;11.60;60.30;;;7.52;77.34;96139.34;5037146;28;20025;-50
2022/04/16 04:01:09;;;;;;;6.18;4.75;;;11.50;60.70;;;7.36;77.70;96128.44;5048338;28;20091;-54
2022/04/16 04:03:38;;;;;;;6.65;4.93;;;11.50;60.80;;;7.33;77.83;96130.72;5050434;28;20037;-53
2022/04/16 04:06:04;;;;;;;7.68;4.75;;;11.40;61.00;;;7.35;78.22;96149.84;5050199;28;20045;-53
2022/04/16 04:08:33;;;;;;;7.57;5.28;;;11.40;61.20;;;7.32;78.02;96145.03;5035090;28;20037;-54
2022/04/16 04:11:03;;;;;;;9.45;5.20;;;11.30;61.10;;;7.25;78.07;96142.47;5033906;28;20052;-54
2022/04/16 04:13:35;;;;;;;6.47;5.10;;;11.30;61.20;;;7.22;78.54;96150.09;5067051;28;20065;-53
2022/04/16 04:16:07;;;;;;;8.23;4.82;;;11.30;61.10;;;7.15;78.80;96150.19;5034799;28;20087;-53
2022/04/16 04:18:33;;;;;;;8.38;5.15;;;11.20;61.20;;;7.09;78.99;96157.22;5034855;28;20084;-54
2022/04/16 04:20:58;;;;;;;7.50;5.60;;;11.20;61.20;;;7.03;79.03;96149.38;5066969;28;20029;-51
2022/04/16 04:23:24;;;;;;;9.10;5.47;;;11.10;61.20;;;6.93;79.61;96147.28;5049994;28;20496;-51
2022/04/16 04:25:54;;;;;;;8.68;5.25;;;11.00;61.20;;;6.90;79.83;96158.34;5050147;28;20037;-50
2022/04/16 04:28:22;;;;;;;12.98;6.13;;;11.00;61.30;;;6.82;80.05;96158.66;5034504;28;20032;-52
2022/04/16 04:30:48;;;;;;;9.23;5.75;;;11.00;61.50;;;6.83;79.65;96169.03;5034479;28;20451;-53
2022/04/16 04:33:14;;;;;;;8.05;6.03;;;10.90;61.30;;;6.79;79.38;96167.84;5049950;28;20026;-51
2022/04/16 04:35:39;;;;;;;8.88;5.85;;;10.80;61.20;;;6.68;79.96;96172.09;5034628;28;20029;-52
2022/04/16 04:38:05;;;;;;;9.32;6.07;;;10.80;61.30;;;6.55;80.18;96185.50;5049814;28;20388;-50
2022/04/16 04:40:34;;;;;;;9.55;6.25;;;10.70;61.20;;;6.46;80.74;96194.78;5034181;28;20032;-52
2022/04/16 04:43:03;;;;;;;10.07;6.20;;;10.60;61.40;;;6.36;81.14;96190.03;5034425;28;20026;-50
2022/04/16 04:45:29;;;;;;;10.65;5.93;;;10.60;61.70;;;6.36;81.22;96194.50;5032784;28;20036;-52
2022/04/16 04:47:54;;;;;;;8.38;5.32;;;10.50;61.80;;;6.33;81.41;96195.75;5049523;28;20022;-52
2022/04/16 04:50:20;;;;;;;10.23;5.82;;;10.50;62.00;;;6.31;81.33;96191.72;5034313;28;20040;-50
2022/04/16 04:52:58;;;;;;;9.73;6.30;;;10.50;62.30;;;6.21;81.75;96179.81;5034222;28;20078;-52
2022/04/16 04:55:31;;;;;;;7.85;5.78;;;10.50;62.60;;;6.26;81.58;96193.16;5032757;28;20477;-51
2022/04/16 04:58:09;;;;;;;9.77;6.70;;;10.40;62.50;;;6.25;81.72;96196.06;5034149;28;20101;-50
2022/04/16 05:00:38;;;;;;;8.07;5.60;;;10.40;62.70;;;6.26;81.79;96193.16;5032622;28;20038;-52
2022/04/16 05:03:03;;;;;;;9.68;6.25;;;10.40;62.70;;;6.29;81.68;96197.22;5033848;28;20511;-52
2022/04/16 05:05:29;;;;;;;8.40;5.95;;;10.40;62.80;;;6.35;81.37;96203.47;5049208;28;20073;-55
2022/04/16 05:07:55;;;;;;;13.63;6.65;;;10.40;62.80;;;6.44;80.89;96202.13;5032617;28;20036;-52
2022/04/16 05:10:22;;;;;;;9.85;5.75;;;10.50;62.90;;;6.44;80.95;96192.34;5032624;28;20550;-52
2022/04/16 05:12:59;;;;;;;7.18;5.50;;;10.50;62.90;;;6.51;80.53;96197.56;5033858;28;20040;-51
2022/04/16 05:15:34;;;;;;;10.13;6.82;;;10.50;62.90;;;6.45;80.88;96196.59;5033770;28;20029;-54
2022/04/16 05:18:03;;;;;;;9.95;6.22;;;10.60;63.20;;;6.65;80.21;96191.06;5032535;28;20036;-50
2022/04/16 05:20:29;;;;;;;9.43;6.30;;;10.70;63.00;;;6.70;80.09;96195.66;5033659;28;20040;-51
2022/04/16 05:23:01;;;;;;;11.50;5.88;;;10.70;62.90;;;6.79;79.83;96209.41;5033550;28;20029;-54
2022/04/16 05:25:29;;;;;;;8.80;5.45;;;10.80;62.90;;;6.82;79.32;96206.31;5033448;28;20549;-50
2022/04/16 05:28:04;;;;;;;10.80;6.32;;;10.90;62.80;;;6.88;79.35;96202.75;5032301;28;20022;-52
2022/04/16 05:30:39;;;;;;;9.07;6.18;;;11.00;62.70;;;6.94;79.20;96205.31;5032345;28;20037;-51
2022/04/16 05:33:16;;;;;;;8.38;5.65;;;11.10;62.60;;;6.95;79.22;96196.31;5008389;28;20029;-52
2022/04/16 05:35:43;;;;;;;9.25;6.13;;;11.20;62.40;;;7.07;78.56;96211.44;5029052;28;20025;-52
2022/04/16 05:38:08;;;;;;;8.40;5.60;;;11.30;62.30;;;7.16;78.73;96215.38;5030647;28;20030;-51
2022/04/16 05:40:34;;;;;;;8.93;5.90;;;11.50;62.10;;;7.21;78.60;96212.88;5032535;28;20036;-50
2022/04/16 05:43:02;;;;;;;9.50;6.28;;;11.60;62.00;;;7.28;78.61;96213.56;5048528;28;20044;-53
2022/04/16 05:45:28;;;;;;;9.07;5.63;;;11.80;61.80;;;7.59;77.67;96214.31;5032353;28;20029;-52
2022/04/16 05:47:53;;;;;;;8.60;5.40;;;12.10;61.50;;;7.84;76.52;96219.38;5031833;28;20124;-56
2022/04/16 05:50:19;;;;;;;8.82;5.60;;;12.40;60.90;;;8.13;75.61;96220.28;5033041;28;20029;-51
2022/04/16 05:52:45;;;;;;;6.97;5.00;;;12.80;60.40;;;8.34;74.53;96217.00;5032875;28;20480;-50
2022/04/16 05:55:11;;;;;;;8.23;5.90;;;13.10;59.80;;;8.43;73.68;96220.13;5030962;28;20068;-53
2022/04/16 05:57:38;;;;;;;9.70;5.82;;;13.40;59.30;;;8.64;73.24;96236.44;5032660;28;20029;-50
2022/04/16 06:00:05;;;;;;;6.72;5.72;;;13.70;58.80;;;8.73;72.49;96222.56;5043948;28;20025;-50
2022/04/16 06:02:32;;;;;;;8.85;5.43;;;13.90;58.30;;;8.80;71.89;96227.72;5031302;28;20029;-53
2022/04/16 06:04:57;;;;;;;6.00;5.03;;;14.10;57.70;;;8.89;71.85;96234.28;5059204;28;20133;-50
2022/04/16 06:07:23;;;;;;;6.82;5.00;;;14.20;57.40;;;9.00;71.17;96224.66;5047602;28;20447;-52
2022/04/16 06:09:49;;;;;;;6.93;5.30;;;14.30;57.00;;;9.00;70.45;96227.31;5031826;28;20027;-53
2022/04/16 06:12:14;;;;;;;6.78;5.07;;;14.50;56.50;;;9.07;70.41;96227.97;5014325;28;20041;-51
2022/04/16 06:14:40;;;;;;;7.65;5.28;;;14.60;56.20;;;9.20;70.12;96235.63;5048017;28;20432;-51
2022/04/16 06:17:06;;;;;;;6.30;5.20;;;14.70;55.70;;;9.32;69.10;96227.59;5031595;28;20045;-53
2022/04/16 06:19:32;;;;;;;5.53;4.80;;;14.90;55.40;;;9.49;68.65;96233.75;5030926;28;20037;-49
2022/04/16 06:22:00;;;;;;;7.30;5.40;;;15.00;55.00;;;9.53;68.19;96238.56;5046611;28;20031;-49
2022/04/16 06:24:32;;;;;;;7.90;5.18;;;15.20;54.60;;;9.64;67.89;96230.50;5030866;28;20030;-50
2022/04/16 06:27:00;;;;;;;8.40;5.28;;;15.30;54.20;;;9.39;68.03;96236.22;5032151;28;20026;-50
2022/04/16 06:29:27;;;;;;;7.20;4.88;;;15.40;53.60;;;9.57;67.98;96234.38;5031038;28;20412;-51
2022/04/16 06:31:56;;;;;;;6.20;4.50;;;15.50;53.40;;;9.67;67.35;96240.66;5032232;28;20502;-52
2022/04/16 06:34:23;;;;;;;6.50;4.57;;;15.50;53.20;;;9.68;67.42;96236.97;5032367;28;20079;-53
2022/04/16 06:36:52;;;;;;;6.43;4.60;;;15.40;53.30;;;9.61;68.14;96246.13;5032074;28;20541;-49
2022/04/16 06:39:27;;;;;;;5.75;4.82;;;15.40;53.40;;;9.50;67.43;96245.97;5064232;28;20056;-49
2022/04/16 06:41:52;;;;;;;10.52;5.35;;;15.30;53.30;;;9.25;68.34;96249.03;5032171;28;20029;-49
2022/04/16 06:44:18;;;;;;;7.53;5.32;;;15.30;53.10;;;9.36;68.42;96251.84;5064236;28;20123;-49
2022/04/16 06:46:45;;;;;;;7.53;5.65;;;15.20;53.10;;;9.47;68.68;96259.75;5047150;28;20033;-53
2022/04/16 06:49:14;;;;;;;7.10;5.43;;;15.20;53.20;;;9.49;68.06;96247.03;5032113;28;20025;-50
2022/04/16 06:51:46;;;;;;;6.70;4.75;;;15.20;53.20;;;9.15;67.71;96250.69;5032115;28;20120;-49
2022/04/16 06:54:20;;;;;;;8.27;5.28;;;15.20;52.90;;;8.87;68.89;96241.69;5032024;28;20034;-50
2022/04/16 06:56:49;;;;;;;6.75;5.22;;;15.20;52.50;;;9.14;68.03;96249.88;5031798;28;20032;-48
2022/04/16 06:59:21;;;;;;;7.93;4.97;;;15.20;52.40;;;9.22;67.79;96251.34;5064069;28;20485;-49
2022/04/16 07:01:49;;;;;;;7.10;5.18;;;15.20;52.20;;;9.49;66.83;96259.50;5032167;28;20033;-49
2022/04/16 07:04:21;;;;;;;7.55;5.38;;;15.30;52.20;;;9.59;66.87;96257.03;5029849;28;20041;-51
2022/04/16 07:06:55;;;;;;;6.28;5.15;;;15.40;52.30;;;9.57;66.21;96243.16;5030716;28;20041;-54
2022/04/16 07:09:24;;;;;;;8.18;4.93;;;15.50;52.00;;;9.72;65.62;96248.72;5032110;28;20026;-52
2022/04/16 07:11:50;;;;;;;7.07;4.93;;;15.60;51.60;;;9.60;65.73;96250.66;5032166;28;20052;-51
2022/04/16 07:14:20;;;;;;;8.48;5.60;;;15.50;51.40;;;9.65;65.77;96249.91;5063887;28;20029;-52
2022/04/16 07:16:57;;;;;;;6.85;4.70;;;15.50;51.20;;;9.20;66.53;96256.09;5031922;28;20075;-51
2022/04/16 07:19:23;;;;;;;6.78;4.97;;;15.40;51.10;;;9.26;67.39;96257.78;5031982;28;20025;-52
2022/04/16 07:21:49;;;;;;;6.47;5.07;;;15.30;51.10;;;9.29;66.70;96259.19;5031793;28;20033;-52
2022/04/16 07:24:14;;;;;;;7.82;5.93;;;15.20;51.30;;;9.18;67.07;96253.69;5031859;28;20059;-51
2022/04/16 07:26:40;;;;;;;8.02;5.63;;;15.20;51.20;;;9.30;66.67;96250.94;5031783;28;20039;-49
2022/04/16 07:29:06;;;;;;;6.68;5.10;;;15.20;51.20;;;9.48;66.04;96252.59;5031815;28;20362;-52
2022/04/16 07:31:38;;;;;;;6.57;4.55;;;15.20;51.10;;;9.33;66.37;96247.81;5031748;28;20033;-52
2022/04/16 07:34:21;;;;;;;6.70;5.43;;;15.30;51.00;;;9.28;65.87;96250.41;5034967;28;20388;-51
2022/04/16 07:36:47;;;;;;;;;;;15.40;50.80;;;9.26;66.43;96265.78;5035898;28;20522;-51
2022/04/16 07:39:14;;;;;;;7.03;4.97;;;15.40;50.60;;;9.42;66.49;96272.97;5035550;28;20000;-51
2022/04/16 07:41:40;;;;;;;8.02;5.43;;;15.50;50.50;;;9.54;65.61;96266.78;5034297;28;20022;-51
2022/04/16 07:44:07;;;;;;;7.35;5.35;;;15.70;50.30;;;9.64;65.14;96258.94;5050651;28;20084;-51
2022/04/16 07:46:34;;;;;;;7.05;5.05;;;16.10;49.60;;;9.94;64.55;96263.94;5050565;28;20476;-53
2022/04/16 07:49:00;;;;;;;5.57;4.85;;;16.20;49.40;;;10.10;63.58;96267.63;5035368;28;20036;-54
2022/04/16 07:51:29;;;;;;;5.50;4.63;;;16.50;49.00;;;9.93;64.08;96260.50;5035475;28;20026;-53
2022/04/16 07:53:58;;;;;;;7.22;5.05;;;16.70;48.30;;;10.30;62.96;96275.94;5008973;28;20049;-52
2022/04/16 07:56:25;;;;;;;4.78;4.28;;;17.10;47.70;;;10.82;61.99;96290.72;5050548;28;20104;-54
2022/04/16 07:58:53;;;;;;;8.32;4.70;;;17.30;47.60;;;11.10;61.45;96287.84;5035376;28;20384;-51
2022/04/16 08:01:19;;;;;;;5.90;5.00;;;17.60;47.20;;;11.49;60.27;96290.34;5034386;28;20029;-51
2022/04/16 08:03:45;;;;;;;6.68;4.60;;;18.10;46.70;;;11.20;59.28;96297.00;5034819;28;20033;-56
2022/04/16 08:06:24;;;;;;;6.03;4.97;;;18.60;45.20;;;10.90;60.05;96284.94;5050143;28;20045;-51
2022/04/16 08:09:00;;;;;;;7.45;5.05;;;18.80;44.10;;;10.81;60.65;96291.75;5034874;28;20041;-54
2022/04/16 08:11:30;;;;;;;6.57;5.60;;;18.50;44.10;;;10.92;59.64;96293.50;5064782;28;20044;-51
2022/04/16 08:13:55;;;;;;;4.95;4.45;;;18.40;44.00;;;11.18;59.00;96291.09;5034789;28;20511;-52
2022/04/16 08:16:24;;;;;;;6.32;5.15;;;18.40;44.00;;;11.29;58.89;96277.63;5066769;28;20025;-54
2022/04/16 08:19:08;;;;;;;6.03;5.43;;;18.80;43.00;;;11.32;58.21;96290.47;5066995;28;20041;-52
2022/04/16 08:21:34;;;;;;;5.75;5.15;;;19.00;42.50;;;11.53;58.36;96285.31;5035013;28;20017;-51
2022/04/16 08:24:12;;;;;;;5.93;5.03;;;19.20;42.10;;;11.25;58.67;96308.53;5034648;28;20448;-51
2022/04/16 08:26:39;;;;;;;6.43;5.28;;;19.30;41.80;;;11.18;58.18;96297.25;5034712;28;20060;-51
2022/04/16 08:29:08;;;;;;;6.20;5.00;;;19.30;41.20;;;11.18;58.54;96299.91;5050200;28;20021;-52
2022/04/16 08:31:34;;;;;;;7.05;5.70;;;19.40;41.00;;;11.49;58.26;96295.69;5049889;28;20029;-53
2022/04/16 08:34:06;;;;;;;5.82;4.75;;;19.50;40.80;;;12.00;57.12;96298.00;5033477;28;20056;-53
2022/04/16 08:36:32;;;;;;;6.05;5.13;;;19.70;40.80;;;11.41;58.21;96306.84;5034448;28;20212;-51
2022/04/16 08:39:00;;;;;;;6.97;5.43;;;19.70;40.40;;;11.65;57.12;96309.19;5034430;28;20132;-55
2022/04/16 08:41:26;;;;;;;6.53;5.10;;;19.60;40.60;;;11.05;58.90;96305.63;5034315;28;20025;-51
2022/04/16 08:44:05;;;;;;;5.53;4.80;;;19.60;40.10;;;11.93;57.43;96306.25;5049321;28;20082;-53
2022/04/16 08:46:32;;;;;;;5.85;4.72;;;19.70;40.50;;;12.58;56.12;96309.59;5049380;28;20124;-56
2022/04/16 08:49:04;;;;;;;7.65;5.28;;;20.00;40.50;;;13.08;53.91;96316.25;5032867;28;20030;-57
2022/04/16 08:51:38;;;;;;;6.32;5.55;;;20.40;40.50;;;12.86;54.31;96297.72;5049378;28;20025;-54
2022/04/16 08:54:05;;;;;;;6.75;5.68;;;20.60;39.50;;;12.72;54.46;96313.44;5049245;28;20041;-51
2022/04/16 08:56:34;;;;;;;5.53;4.68;;;20.70;39.40;;;12.52;54.87;96316.00;5033937;28;20037;-52
2022/04/16 08:59:02;;;;;;;6.35;5.13;;;20.70;38.90;;;12.59;54.73;96318.44;5033127;28;20112;-53
2022/04/16 09:01:28;;;;;;;5.50;5.00;;;20.60;38.80;;;12.21;55.82;96318.47;5033871;28;20037;-56
2022/04/16 09:04:00;;;;;;;8.85;5.30;;;20.70;38.30;;;12.41;54.87;96314.31;5033820;28;20091;-52
2022/04/16 09:06:27;;;;;;;5.75;4.82;;;20.70;38.30;;;12.49;55.49;96319.19;5033722;28;20338;-54
2022/04/16 09:08:54;;;;;;;5.65;5.03;;;20.80;38.10;;;12.67;54.63;96328.63;5033836;28;20021;-56
2022/04/16 09:11:26;;;;;;;5.05;4.25;;;20.90;38.20;;;12.86;53.74;96321.78;5032558;28;20079;-55
2022/04/16 09:13:53;;;;;;;5.80;4.82;;;20.90;38.30;;;12.77;53.70;96334.03;5048758;28;20029;-56
2022/04/16 09:16:25;;;;;;;7.22;4.88;;;20.70;38.20;;;12.25;54.44;96326.75;5033629;28;20033;-52
2022/04/16 09:18:58;;;;;;;5.80;4.60;;;20.80;37.80;;;12.02;54.00;96328.75;5033539;28;20083;-52
2022/04/16 09:21:27;;;;;;;6.10;4.78;;;20.60;37.50;;;11.79;55.32;96331.72;5049139;28;20104;-51
2022/04/16 09:24:05;;;;;;;6.50;4.68;;;20.50;37.20;;;11.93;55.32;96329.47;5033434;28;20029;-52
2022/04/16 09:26:36;;;;;;;4.93;4.43;;;20.30;37.30;;;11.70;55.53;96317.25;5033436;28;20083;-52
2022/04/16 09:29:14;;;;;;;6.55;4.05;;;20.10;37.60;;;11.90;55.12;96328.09;5048688;28;20473;-52
2022/04/16 09:31:45;;;;;;;5.07;4.03;;;20.00;37.80;;;11.66;54.57;96332.94;5048644;28;20819;-53
2022/04/16 09:34:23;;;;;;;5.57;4.30;;;20.00;37.80;;;11.66;55.26;96334.78;5033412;28;20036;-52
2022/04/16 09:36:55;;;;;;;6.03;4.20;;;19.90;37.80;;;11.82;54.76;96342.69;5048341;28;20404;-53
2022/04/16 09:39:43;;;;;;;6.73;4.23;;;20.00;37.70;;;11.94;53.80;96349.75;5048519;28;20112;-52
2022/04/16 09:42:07;;;;;;;4.40;3.92;;;19.90;37.70;;;11.97;54.24;96357.25;5021078;28;20291;-53
2022/04/16 09:44:33;;;;;;;4.63;4.07;;;19.90;37.70;;;12.25;54.46;96340.94;5032744;28;20365;-54
2022/04/16 09:47:06;;;;;;;6.25;3.70;;;19.90;38.00;;;12.43;53.95;96353.06;5065106;28;20052;-55
2022/04/16 09:49:36;;;;;;;4.82;3.55;;;20.00;38.20;;;12.59;52.73;96353.97;5047842;28;20030;-53
2022/04/16 09:52:06;;;;;;;7.25;3.90;;;20.00;38.20;;;12.17;54.08;96351.28;5033273;28;20480;-55
2022/04/16 09:54:33;;;;;;;5.05;3.58;;;20.00;37.90;;;12.47;53.52;96348.84;5032387;28;20079;-52
2022/04/16 09:57:02;;;;;;;6.13;3.67;;;20.00;37.90;;;12.36;54.38;96349.03;5064162;28;20029;-52
2022/04/16 09:59:34;;;;;;;4.18;3.72;;;20.10;38.00;;;12.65;53.03;96358.28;5032762;28;20424;-51
2022/04/16 10:02:02;;;;;;;5.60;3.90;;;20.20;37.90;;;12.60;53.05;96352.94;5031422;28;20488;-53
2022/04/16 10:04:34;;;;;;;4.35;3.25;;;20.30;37.90;;;12.99;52.84;96355.25;5047863;28;20069;-51
2022/04/16 10:07:10;;;;;;;5.43;3.28;;;20.40;37.80;;;13.20;52.82;96358.81;5031263;28;20068;-52
2022/04/16 10:09:41;;;;;;;5.38;3.20;;;20.50;37.90;;;13.06;51.41;96342.44;5018841;28;20477;-52
2022/04/16 10:15:20;;;;;;;5.47;3.58;;;20.80;36.90;;;12.71;51.62;96346.56;5016862;28;20041;-51
2022/04/16 10:17:52;;;;;;;3.90;3.42;;;21.00;36.20;;;12.76;52.34;96356.50;5063157;28;20416;-57
2022/04/16 10:20:21;;;;;;;3.73;3.33;;;21.00;36.00;;;13.01;51.67;96350.47;5032458;28;20512;-55
2022/04/16 10:22:58;;;;;;;4.28;3.40;;;21.10;36.30;;;12.70;50.98;96334.28;5032418;28;20547;-50
2022/04/16 10:25:41;;;;;;;4.07;3.05;;;21.40;35.30;;;13.13;50.88;96343.03;5032160;28;20101;-52
2022/04/16 10:28:09;;;;;;;4.03;3.60;;;21.50;35.00;;;13.14;51.83;96355.31;5032364;28;20026;-53
2022/04/16 10:30:50;;;;;;;4.35;3.13;;;21.60;35.00;;;13.48;49.58;96357.63;5031061;28;20029;-50
2022/04/16 10:33:27;;;;;;;3.38;2.90;;;21.80;34.90;;;13.32;48.75;96347.94;5046484;28;20358;-50
2022/04/16 10:36:09;;;;;;;3.63;3.20;;;21.70;34.20;;;13.11;50.41;96355.03;5047486;28;20047;-50
2022/04/16 10:38:37;;;;;;;3.23;2.93;;;21.70;34.10;;;12.76;50.30;96355.69;5047113;28;20021;-53
2022/04/16 10:41:28;;;;;;;5.32;3.35;;;21.60;33.80;;;12.91;50.41;96358.41;5031103;28;20041;-52
2022/04/16 10:44:09;;;;;;;3.75;3.22;;;21.60;33.80;;;12.66;51.00;96361.75;5030881;28;20037;-52
2022/04/16 10:46:49;;;;;;;4.10;3.25;;;21.50;34.00;;;12.80;50.63;96359.44;5047458;28;20133;-52
2022/04/16 10:49:42;;;;;;;3.60;3.17;;;21.30;34.20;;;12.91;51.01;96361.09;5047554;28;20032;-52